createdAt,value
2023-04-19T00:00:21.748Z,1025.85
2023-04-19T00:00:52.643Z,1025.83
2023-04-19T00:01:23.754Z,1025.82
2023-04-19T00:01:53.381Z,1025.82
2023-04-19T00:02:25.302Z,1025.81
2023-04-19T00:02:55.241Z,1025.80
2023-04-19T00:03:56.822Z,1025.79
2023-04-19T00:04:28.428Z,1025.79
2023-04-19T00:04:59.225Z,1025.78
2023-04-19T00:05:29.944Z,1025.76
2023-04-19T00:06:00.859Z,1025.76
2023-04-19T00:06:31.762Z,1025.75
2023-04-19T00:07:02.708Z,1025.74
2023-04-19T00:07:33.502Z,1025.73
2023-04-19T00:08:04.396Z,1025.73
2023-04-19T00:08:35.296Z,1025.73
2023-04-19T00:09:06.231Z,1025.73
2023-04-19T00:09:35.830Z,1025.72
2023-04-19T00:10:07.809Z,1025.73
2023-04-19T00:10:38.591Z,1025.74
2023-04-19T00:11:09.546Z,1025.73
2023-04-19T00:11:40.432Z,1025.77
2023-04-19T00:12:11.258Z,1025.74
2023-04-19T00:12:40.880Z,1025.74
2023-04-19T00:13:11.480Z,1025.75
2023-04-19T00:13:43.390Z,1025.75
2023-04-19T00:14:14.641Z,1025.76
2023-04-19T00:14:45.010Z,1025.74
2023-04-19T00:15:15.926Z,1025.76
2023-04-19T00:15:46.832Z,1025.77
2023-04-19T00:16:16.490Z,1025.75
2023-04-19T00:16:48.294Z,1025.76
2023-04-19T00:17:19.208Z,1025.75
2023-04-19T00:17:50.036Z,1025.75
2023-04-19T00:18:23.057Z,1025.74
2023-04-19T00:18:50.946Z,1025.72
2023-04-19T00:19:22.867Z,1025.76
2023-04-19T00:19:53.782Z,1025.73
2023-04-19T00:20:24.804Z,1025.74
2023-04-19T00:20:55.697Z,1025.74
2023-04-19T00:21:26.581Z,1025.74
2023-04-19T00:21:57.474Z,1025.74
2023-04-19T00:22:28.414Z,1025.76
2023-04-19T00:22:59.337Z,1025.74
2023-04-19T00:23:30.305Z,1025.73
2023-04-19T00:23:59.848Z,1025.72
2023-04-19T00:24:31.812Z,1025.74
2023-04-19T00:25:02.702Z,1025.75
2023-04-19T00:25:33.617Z,1025.71
2023-04-19T00:26:04.630Z,1025.71
2023-04-19T00:26:35.564Z,1025.71
2023-04-19T00:27:05.160Z,1025.71
2023-04-19T00:27:37.105Z,1025.70
2023-04-19T00:28:06.736Z,1025.73
2023-04-19T00:28:38.665Z,1025.72
2023-04-19T00:29:40.479Z,1025.70
2023-04-19T00:30:11.422Z,1025.69
2023-04-19T00:30:42.241Z,1025.70
2023-04-19T00:31:11.969Z,1025.70
2023-04-19T00:31:43.406Z,1025.70
2023-04-19T00:32:14.218Z,1025.70
2023-04-19T00:32:43.838Z,1025.68
2023-04-19T00:33:15.768Z,1025.67
2023-04-19T00:33:46.691Z,1025.68
2023-04-19T00:34:17.643Z,1025.66
2023-04-19T00:34:47.193Z,1025.65
2023-04-19T00:35:19.114Z,1025.63
2023-04-19T00:35:50.128Z,1025.65
2023-04-19T00:36:20.868Z,1025.63
2023-04-19T00:36:50.509Z,1025.67
2023-04-19T00:37:22.397Z,1025.63
2023-04-19T00:37:53.292Z,1025.62
2023-04-19T00:38:22.900Z,1025.60
2023-04-19T00:38:54.808Z,1025.61
2023-04-19T00:39:25.758Z,1025.61
2023-04-19T00:39:56.687Z,1025.59
2023-04-19T00:40:27.604Z,1025.58
2023-04-19T00:40:58.539Z,1025.59
2023-04-19T00:41:29.308Z,1025.54
2023-04-19T00:42:30.796Z,1025.55
2023-04-19T00:43:01.709Z,1025.53
2023-04-19T00:43:32.584Z,1025.53
2023-04-19T00:44:03.506Z,1025.51
2023-04-19T00:44:33.112Z,1025.50
2023-04-19T00:45:05.021Z,1025.50
2023-04-19T00:45:35.953Z,1025.50
2023-04-19T00:46:05.953Z,1025.49
2023-04-19T00:46:37.930Z,1025.48
2023-04-19T00:47:08.426Z,1025.47
2023-04-19T00:47:39.384Z,1025.46
2023-04-19T00:48:10.392Z,1025.45
2023-04-19T00:48:41.285Z,1025.44
2023-04-19T00:49:12.199Z,1025.43
2023-04-19T00:49:43.123Z,1025.43
2023-04-19T00:50:13.744Z,1025.44
2023-04-19T00:50:44.598Z,1025.43
2023-04-19T00:51:15.507Z,1025.42
2023-04-19T00:51:48.476Z,1025.43
2023-04-19T00:52:17.244Z,1025.42
2023-04-19T00:52:48.155Z,1025.43
2023-04-19T00:53:19.082Z,1025.41
2023-04-19T00:53:49.882Z,1025.42
2023-04-19T00:54:19.483Z,1025.41
2023-04-19T00:54:51.414Z,1025.43
2023-04-19T00:55:21.035Z,1025.42
2023-04-19T00:55:51.656Z,1025.41
2023-04-19T00:56:23.572Z,1025.43
2023-04-19T00:56:54.507Z,1025.44
2023-04-19T00:57:24.379Z,1025.46
2023-04-19T00:57:56.294Z,1025.46
2023-04-19T00:58:27.215Z,1025.45
2023-04-19T00:58:56.821Z,1025.44
2023-04-19T00:59:27.357Z,1025.44
2023-04-19T00:59:59.302Z,1025.44
2023-04-19T01:00:29.180Z,1025.44
2023-04-19T01:01:01.202Z,1025.46
2023-04-19T01:01:31.717Z,1025.46
2023-04-19T01:02:02.338Z,1025.44
2023-04-19T01:02:32.087Z,1025.44
2023-04-19T01:03:03.705Z,1025.46
2023-04-19T01:03:35.183Z,1025.46
2023-04-19T01:04:03.887Z,1025.46
2023-04-19T01:04:35.508Z,1025.46
2023-04-19T01:05:06.030Z,1025.46
2023-04-19T01:05:35.621Z,1025.46
2023-04-19T01:06:06.121Z,1025.45
2023-04-19T01:06:38.102Z,1025.45
2023-04-19T01:07:09.800Z,1025.47
2023-04-19T01:07:39.730Z,1025.45
2023-04-19T01:08:41.229Z,1025.46
2023-04-19T01:09:12.152Z,1025.45
2023-04-19T01:09:43.110Z,1025.45
2023-04-19T01:10:14.034Z,1025.45
2023-04-19T01:10:44.940Z,1025.45
2023-04-19T01:11:14.485Z,1025.44
2023-04-19T01:11:46.393Z,1025.43
2023-04-19T01:12:17.299Z,1025.44
2023-04-19T01:12:48.268Z,1025.43
2023-04-19T01:13:19.153Z,1025.43
2023-04-19T01:13:50.084Z,1025.42
2023-04-19T01:14:21.002Z,1025.42
2023-04-19T01:14:51.930Z,1025.41
2023-04-19T01:15:22.856Z,1025.41
2023-04-19T01:15:53.794Z,1025.41
2023-04-19T01:16:24.778Z,1025.40
2023-04-19T01:16:55.238Z,1025.39
2023-04-19T01:17:26.165Z,1025.38
2023-04-19T01:17:56.663Z,1025.37
2023-04-19T01:18:27.574Z,1025.36
2023-04-19T01:18:58.511Z,1025.34
2023-04-19T01:19:28.105Z,1025.34
2023-04-19T01:19:59.995Z,1025.33
2023-04-19T01:20:30.893Z,1025.33
2023-04-19T01:21:01.811Z,1025.32
2023-04-19T01:21:31.334Z,1025.32
2023-04-19T01:22:03.282Z,1025.31
2023-04-19T01:22:32.802Z,1025.30
2023-04-19T01:23:04.726Z,1025.30
2023-04-19T01:23:35.644Z,1025.29
2023-04-19T01:24:06.439Z,1025.29
2023-04-19T01:24:37.262Z,1025.29
2023-04-19T01:25:08.169Z,1025.28
2023-04-19T01:25:39.064Z,1025.31
2023-04-19T01:26:08.695Z,1025.27
2023-04-19T01:26:40.608Z,1025.27
2023-04-19T01:27:11.538Z,1025.27
2023-04-19T01:27:42.434Z,1025.27
2023-04-19T01:28:11.987Z,1025.28
2023-04-19T01:28:43.765Z,1025.25
2023-04-19T01:29:14.657Z,1025.25
2023-04-19T01:29:45.468Z,1025.24
2023-04-19T01:30:16.372Z,1025.24
2023-04-19T01:30:47.336Z,1025.22
2023-04-19T01:31:18.198Z,1025.21
2023-04-19T01:31:48.730Z,1025.21
2023-04-19T01:32:19.174Z,1025.21
2023-04-19T01:32:50.113Z,1025.21
2023-04-19T01:33:19.678Z,1025.20
2023-04-19T01:33:51.580Z,1025.20
2023-04-19T01:34:22.484Z,1025.20
2023-04-19T01:34:51.993Z,1025.19
2023-04-19T01:35:23.918Z,1025.19
2023-04-19T01:35:53.782Z,1025.18
2023-04-19T01:36:25.705Z,1025.17
2023-04-19T01:36:56.612Z,1025.17
2023-04-19T01:37:27.541Z,1025.16
2023-04-19T01:37:58.464Z,1025.16
2023-04-19T01:38:29.379Z,1025.16
2023-04-19T01:39:00.209Z,1025.15
2023-04-19T01:39:31.090Z,1025.15
2023-04-19T01:40:00.685Z,1025.16
2023-04-19T01:40:32.591Z,1025.15
2023-04-19T01:41:02.197Z,1025.14
2023-04-19T01:41:34.118Z,1025.13
2023-04-19T01:42:04.146Z,1025.13
2023-04-19T01:42:36.048Z,1025.14
2023-04-19T01:43:06.962Z,1025.12
2023-04-19T01:43:37.978Z,1025.13
2023-04-19T01:44:08.863Z,1025.12
2023-04-19T01:44:39.782Z,1025.12
2023-04-19T01:45:10.696Z,1025.11
2023-04-19T01:45:41.607Z,1025.11
2023-04-19T01:46:12.419Z,1025.10
2023-04-19T01:46:43.408Z,1025.10
2023-04-19T01:47:13.987Z,1025.11
2023-04-19T01:47:44.454Z,1025.09
2023-04-19T01:48:15.232Z,1025.10
2023-04-19T01:48:46.050Z,1025.08
2023-04-19T01:49:15.647Z,1025.07
2023-04-19T01:49:47.455Z,1025.05
2023-04-19T01:50:17.066Z,1025.06
2023-04-19T01:50:51.303Z,1025.05
2023-04-19T01:51:18.686Z,1025.05
2023-04-19T01:51:50.612Z,1025.04
2023-04-19T01:52:21.521Z,1025.03
2023-04-19T01:52:52.438Z,1025.02
2023-04-19T01:53:23.232Z,1025.02
2023-04-19T01:53:54.159Z,1025.02
2023-04-19T01:54:25.058Z,1025.01
2023-04-19T01:54:55.988Z,1025.01
2023-04-19T01:55:26.929Z,1025.00
2023-04-19T01:55:57.853Z,1024.99
2023-04-19T01:56:27.386Z,1024.99
2023-04-19T01:56:58.252Z,1024.99
2023-04-19T01:57:30.196Z,1024.99
2023-04-19T01:58:01.095Z,1025.00
2023-04-19T01:58:32.017Z,1025.00
2023-04-19T01:59:03.031Z,1025.01
2023-04-19T01:59:33.932Z,1025.01
2023-04-19T02:00:03.928Z,1025.02
2023-04-19T02:00:35.890Z,1025.03
2023-04-19T02:01:06.774Z,1025.03
2023-04-19T02:01:37.196Z,1025.03
2023-04-19T02:02:08.338Z,1025.03
2023-04-19T02:02:38.187Z,1025.04
2023-04-19T02:03:09.838Z,1025.02
2023-04-19T02:03:40.481Z,1025.02
2023-04-19T02:04:10.319Z,1025.01
2023-04-19T02:04:42.044Z,1025.01
2023-04-19T02:05:12.967Z,1025.01
2023-04-19T02:05:42.578Z,1025.00
2023-04-19T02:06:14.492Z,1025.00
2023-04-19T02:06:45.417Z,1024.98
2023-04-19T02:07:16.356Z,1024.98
2023-04-19T02:07:47.243Z,1024.96
2023-04-19T02:08:18.009Z,1024.98
2023-04-19T02:08:48.908Z,1024.95
2023-04-19T02:09:19.809Z,1024.97
2023-04-19T02:09:50.696Z,1024.94
2023-04-19T02:10:21.528Z,1024.94
2023-04-19T02:10:52.430Z,1024.92
2023-04-19T02:11:23.328Z,1024.92
2023-04-19T02:11:53.205Z,1024.91
2023-04-19T02:12:25.103Z,1024.90
2023-04-19T02:12:54.723Z,1024.90
2023-04-19T02:13:26.511Z,1024.90
2023-04-19T02:13:57.339Z,1024.90
2023-04-19T02:14:28.260Z,1024.89
2023-04-19T02:14:59.149Z,1024.88
2023-04-19T02:15:29.155Z,1024.88
2023-04-19T02:16:01.140Z,1024.87
2023-04-19T02:16:32.758Z,1024.88
2023-04-19T02:17:33.770Z,1024.86
2023-04-19T02:18:04.253Z,1024.86
2023-04-19T02:18:35.154Z,1024.86
2023-04-19T02:19:06.097Z,1024.86
2023-04-19T02:19:36.989Z,1024.85
2023-04-19T02:20:07.917Z,1024.85
2023-04-19T02:20:38.827Z,1024.84
2023-04-19T02:21:09.818Z,1024.84
2023-04-19T02:21:40.720Z,1024.82
2023-04-19T02:22:11.634Z,1024.83
2023-04-19T02:22:41.161Z,1024.81
2023-04-19T02:23:13.124Z,1024.80
2023-04-19T02:23:42.658Z,1024.80
2023-04-19T02:24:14.924Z,1024.79
2023-04-19T02:24:45.087Z,1024.79
2023-04-19T02:25:14.710Z,1024.78
2023-04-19T02:25:46.666Z,1024.78
2023-04-19T02:26:17.598Z,1024.77
2023-04-19T02:26:48.502Z,1024.76
2023-04-19T02:27:19.380Z,1024.78
2023-04-19T02:27:50.310Z,1024.77
2023-04-19T02:28:21.198Z,1024.76
2023-04-19T02:28:52.153Z,1024.76
2023-04-19T02:29:23.087Z,1024.76
2023-04-19T02:29:54.037Z,1024.76
2023-04-19T02:30:24.908Z,1024.77
2023-04-19T02:30:54.425Z,1024.76
2023-04-19T02:31:26.375Z,1024.77
2023-04-19T02:31:57.172Z,1024.80
2023-04-19T02:32:28.172Z,1024.76
2023-04-19T02:32:59.009Z,1024.77
2023-04-19T02:33:29.931Z,1024.77
2023-04-19T02:34:00.746Z,1024.77
2023-04-19T02:34:31.714Z,1024.77
2023-04-19T02:35:02.599Z,1024.77
2023-04-19T02:35:33.499Z,1024.77
2023-04-19T02:36:04.433Z,1024.77
2023-04-19T02:36:35.260Z,1024.77
2023-04-19T02:37:06.177Z,1024.78
2023-04-19T02:37:37.096Z,1024.76
2023-04-19T02:38:06.700Z,1024.74
2023-04-19T02:38:37.568Z,1024.75
2023-04-19T02:39:09.497Z,1024.73
2023-04-19T02:39:40.408Z,1024.72
2023-04-19T02:40:11.217Z,1024.71
2023-04-19T02:40:42.113Z,1024.72
2023-04-19T02:41:11.645Z,1024.71
2023-04-19T02:41:43.583Z,1024.70
2023-04-19T02:42:14.503Z,1024.69
2023-04-19T02:42:45.441Z,1024.71
2023-04-19T02:43:16.240Z,1024.70
2023-04-19T02:43:46.260Z,1024.69
2023-04-19T02:44:18.350Z,1024.68
2023-04-19T02:44:48.923Z,1024.69
2023-04-19T02:45:19.869Z,1024.68
2023-04-19T02:45:50.879Z,1024.69
2023-04-19T02:46:21.364Z,1024.69
2023-04-19T02:46:52.267Z,1024.69
2023-04-19T02:47:54.206Z,1024.67
2023-04-19T02:48:23.837Z,1024.68
2023-04-19T02:48:54.452Z,1024.67
2023-04-19T02:49:24.980Z,1024.67
2023-04-19T02:49:56.889Z,1024.66
2023-04-19T02:50:27.833Z,1024.66
2023-04-19T02:50:57.369Z,1024.66
2023-04-19T02:51:29.289Z,1024.65
2023-04-19T02:52:00.194Z,1024.66
2023-04-19T02:52:31.121Z,1024.65
2023-04-19T02:53:02.071Z,1024.65
2023-04-19T02:53:32.858Z,1024.65
2023-04-19T02:54:03.666Z,1024.66
2023-04-19T02:54:34.579Z,1024.64
2023-04-19T02:55:05.400Z,1024.65
2023-04-19T02:55:35.013Z,1024.64
2023-04-19T02:56:06.810Z,1024.64
2023-04-19T02:56:37.725Z,1024.64
2023-04-19T02:57:07.253Z,1024.62
2023-04-19T02:57:38.768Z,1024.62
2023-04-19T02:58:09.683Z,1024.63
2023-04-19T02:58:40.598Z,1024.60
2023-04-19T02:59:11.512Z,1024.59
2023-04-19T02:59:42.410Z,1024.58
2023-04-19T03:00:42.906Z,1024.58
2023-04-19T03:01:14.766Z,1024.58
2023-04-19T03:01:44.307Z,1024.58
2023-04-19T03:02:16.230Z,1024.56
2023-04-19T03:02:47.335Z,1024.55
2023-04-19T03:03:18.178Z,1024.55
2023-04-19T03:03:48.747Z,1024.54
2023-04-19T03:04:19.242Z,1024.54
2023-04-19T03:04:50.165Z,1024.54
2023-04-19T03:05:21.066Z,1024.53
2023-04-19T03:05:51.997Z,1024.51
2023-04-19T03:06:21.648Z,1024.51
2023-04-19T03:06:53.556Z,1024.50
2023-04-19T03:07:24.358Z,1024.50
2023-04-19T03:07:55.255Z,1024.49
2023-04-19T03:08:26.189Z,1024.49
2023-04-19T03:08:57.111Z,1024.48
2023-04-19T03:09:28.001Z,1024.49
2023-04-19T03:09:58.892Z,1024.47
2023-04-19T03:10:29.689Z,1024.48
2023-04-19T03:11:00.596Z,1024.48
2023-04-19T03:11:30.119Z,1024.47
2023-04-19T03:12:02.037Z,1024.47
2023-04-19T03:12:32.976Z,1024.47
2023-04-19T03:13:34.715Z,1024.45
2023-04-19T03:14:05.637Z,1024.44
2023-04-19T03:14:36.540Z,1024.44
2023-04-19T03:15:07.442Z,1024.43
2023-04-19T03:15:40.353Z,1024.43
2023-04-19T03:16:09.216Z,1024.44
2023-04-19T03:16:40.113Z,1024.42
2023-04-19T03:17:11.042Z,1024.43
2023-04-19T03:17:41.912Z,1024.43
2023-04-19T03:18:11.463Z,1024.43
2023-04-19T03:18:43.368Z,1024.42
2023-04-19T03:19:14.260Z,1024.41
2023-04-19T03:19:45.167Z,1024.41
2023-04-19T03:20:16.071Z,1024.40
2023-04-19T03:20:45.584Z,1024.39
2023-04-19T03:21:17.498Z,1024.38
2023-04-19T03:21:48.448Z,1024.37
2023-04-19T03:22:18.087Z,1024.37
2023-04-19T03:22:50.052Z,1024.35
2023-04-19T03:23:19.556Z,1024.36
2023-04-19T03:23:50.082Z,1024.35
2023-04-19T03:24:22.034Z,1024.34
2023-04-19T03:24:52.960Z,1024.34
2023-04-19T03:25:23.851Z,1024.33
2023-04-19T03:26:25.681Z,1024.32
2023-04-19T03:26:56.607Z,1024.31
2023-04-19T03:27:27.509Z,1024.30
2023-04-19T03:27:57.127Z,1024.30
2023-04-19T03:28:29.058Z,1024.29
2023-04-19T03:28:59.897Z,1024.29
2023-04-19T03:29:30.815Z,1024.29
2023-04-19T03:30:01.635Z,1024.29
2023-04-19T03:30:32.571Z,1024.30
2023-04-19T03:31:03.627Z,1024.29
2023-04-19T03:31:34.155Z,1024.27
2023-04-19T03:32:04.580Z,1024.27
2023-04-19T03:32:34.479Z,1024.28
2023-04-19T03:33:06.445Z,1024.27
2023-04-19T03:33:37.351Z,1024.27
2023-04-19T03:34:08.291Z,1024.27
2023-04-19T03:34:39.185Z,1024.26
2023-04-19T03:35:08.714Z,1024.26
2023-04-19T03:35:40.639Z,1024.25
2023-04-19T03:36:11.561Z,1024.25
2023-04-19T03:36:42.468Z,1024.26
2023-04-19T03:37:13.420Z,1024.25
2023-04-19T03:37:44.349Z,1024.25
2023-04-19T03:38:15.150Z,1024.25
2023-04-19T03:38:46.039Z,1024.24
2023-04-19T03:39:15.618Z,1024.24
2023-04-19T03:39:47.528Z,1024.24
2023-04-19T03:40:18.443Z,1024.24
2023-04-19T03:40:49.344Z,1024.23
2023-04-19T03:41:20.221Z,1024.23
2023-04-19T03:41:51.159Z,1024.23
2023-04-19T03:42:22.105Z,1024.23
2023-04-19T03:42:53.022Z,1024.25
2023-04-19T03:43:54.858Z,1024.21
2023-04-19T03:44:25.768Z,1024.21
2023-04-19T03:44:56.716Z,1024.22
2023-04-19T03:45:27.655Z,1024.21
2023-04-19T03:45:58.625Z,1024.22
2023-04-19T03:46:28.185Z,1024.21
2023-04-19T03:47:00.132Z,1024.21
2023-04-19T03:47:31.073Z,1024.20
2023-04-19T03:48:03.139Z,1024.20
2023-04-19T03:48:32.732Z,1024.20
2023-04-19T03:49:02.345Z,1024.18
2023-04-19T03:49:34.257Z,1024.19
2023-04-19T03:50:05.160Z,1024.20
2023-04-19T03:50:36.094Z,1024.17
2023-04-19T03:51:07.034Z,1024.19
2023-04-19T03:51:37.936Z,1024.17
2023-04-19T03:52:07.934Z,1024.16
2023-04-19T03:52:39.905Z,1024.16
2023-04-19T03:53:09.540Z,1024.16
2023-04-19T03:53:40.142Z,1024.16
2023-04-19T03:54:12.085Z,1024.13
2023-04-19T03:54:41.646Z,1024.14
2023-04-19T03:55:13.585Z,1024.14
2023-04-19T03:55:44.523Z,1024.14
2023-04-19T03:56:15.422Z,1024.14
2023-04-19T03:56:46.343Z,1024.13
2023-04-19T03:57:17.245Z,1024.14
2023-04-19T03:57:46.848Z,1024.14
2023-04-19T03:58:17.507Z,1024.14
2023-04-19T03:58:49.407Z,1024.13
2023-04-19T03:59:20.319Z,1024.13
2023-04-19T03:59:51.277Z,1024.13
2023-04-19T04:00:22.185Z,1024.13
2023-04-19T04:00:53.096Z,1024.13
2023-04-19T04:01:23.923Z,1024.12
2023-04-19T04:01:55.749Z,1024.12
2023-04-19T04:02:25.957Z,1024.13
2023-04-19T04:02:56.659Z,1024.12
2023-04-19T04:03:27.402Z,1024.12
2023-04-19T04:03:58.136Z,1024.12
2023-04-19T04:04:28.880Z,1024.11
2023-04-19T04:04:58.634Z,1024.12
2023-04-19T04:05:30.546Z,1024.11
2023-04-19T04:06:01.501Z,1024.12
2023-04-19T04:06:32.418Z,1024.11
2023-04-19T04:07:03.337Z,1024.11
2023-04-19T04:07:34.200Z,1024.11
2023-04-19T04:08:05.078Z,1024.12
2023-04-19T04:08:34.905Z,1024.12
2023-04-19T04:09:06.789Z,1024.11
2023-04-19T04:09:37.639Z,1024.10
2023-04-19T04:10:08.522Z,1024.11
2023-04-19T04:10:39.277Z,1024.12
2023-04-19T04:11:09.258Z,1024.11
2023-04-19T04:11:40.214Z,1024.11
2023-04-19T04:12:12.086Z,1024.11
2023-04-19T04:12:42.970Z,1024.12
2023-04-19T04:13:13.723Z,1024.12
2023-04-19T04:13:44.586Z,1024.12
2023-04-19T04:14:15.574Z,1024.13
2023-04-19T04:14:45.208Z,1024.13
2023-04-19T04:15:16.181Z,1024.16
2023-04-19T04:15:48.037Z,1024.14
2023-04-19T04:16:18.948Z,1024.14
2023-04-19T04:16:49.892Z,1024.14
2023-04-19T04:17:19.617Z,1024.15
2023-04-19T04:17:51.565Z,1024.15
2023-04-19T04:18:22.457Z,1024.15
2023-04-19T04:18:53.371Z,1024.15
2023-04-19T04:19:24.242Z,1024.15
2023-04-19T04:19:53.814Z,1024.14
2023-04-19T04:20:25.667Z,1024.14
2023-04-19T04:20:56.533Z,1024.14
2023-04-19T04:21:27.443Z,1024.15
2023-04-19T04:22:29.177Z,1024.15
2023-04-19T04:23:00.032Z,1024.15
2023-04-19T04:23:30.874Z,1024.16
2023-04-19T04:24:01.748Z,1024.17
2023-04-19T04:24:32.593Z,1024.17
2023-04-19T04:25:03.478Z,1024.17
2023-04-19T04:25:34.324Z,1024.18
2023-04-19T04:26:03.861Z,1024.18
2023-04-19T04:26:35.739Z,1024.19
2023-04-19T04:27:05.726Z,1024.20
2023-04-19T04:27:37.636Z,1024.20
2023-04-19T04:28:09.340Z,1024.20
2023-04-19T04:28:39.085Z,1024.21
2023-04-19T04:29:09.914Z,1024.21
2023-04-19T04:29:40.679Z,1024.22
2023-04-19T04:30:11.562Z,1024.22
2023-04-19T04:30:42.419Z,1024.22
2023-04-19T04:31:12.385Z,1024.22
2023-04-19T04:31:44.360Z,1024.22
2023-04-19T04:32:14.768Z,1024.22
2023-04-19T04:32:45.637Z,1024.23
2023-04-19T04:33:16.575Z,1024.23
2023-04-19T04:33:47.421Z,1024.24
2023-04-19T04:34:18.396Z,1024.24
2023-04-19T04:35:18.322Z,1024.24
2023-04-19T04:35:50.179Z,1024.25
2023-04-19T04:36:21.073Z,1024.25
2023-04-19T04:36:51.946Z,1024.26
2023-04-19T04:37:22.891Z,1024.27
2023-04-19T04:37:53.723Z,1024.26
2023-04-19T04:38:25.336Z,1024.26
2023-04-19T04:38:55.317Z,1024.26
2023-04-19T04:39:26.175Z,1024.25
2023-04-19T04:39:57.035Z,1024.25
2023-04-19T04:40:27.944Z,1024.25
2023-04-19T04:40:58.794Z,1024.25
2023-04-19T04:41:29.697Z,1024.25
2023-04-19T04:41:59.258Z,1024.25
2023-04-19T04:42:30.239Z,1024.25
2023-04-19T04:43:02.095Z,1024.23
2023-04-19T04:43:32.998Z,1024.23
2023-04-19T04:44:12.578Z,1024.24
2023-04-19T04:44:34.589Z,1024.23
2023-04-19T04:45:05.473Z,1024.23
2023-04-19T04:45:36.328Z,1024.22
2023-04-19T04:46:07.204Z,1024.21
2023-04-19T04:46:36.782Z,1024.21
2023-04-19T04:47:08.681Z,1024.22
2023-04-19T04:48:10.524Z,1024.21
2023-04-19T04:48:40.093Z,1024.21
2023-04-19T04:49:10.640Z,1024.21
2023-04-19T04:49:42.525Z,1024.22
2023-04-19T04:50:13.301Z,1024.21
2023-04-19T04:50:44.177Z,1024.22
2023-04-19T04:51:15.037Z,1024.23
2023-04-19T04:51:44.622Z,1024.23
2023-04-19T04:52:16.506Z,1024.23
2023-04-19T04:52:47.365Z,1024.23
2023-04-19T04:53:18.208Z,1024.22
2023-04-19T04:53:48.183Z,1024.25
2023-04-19T04:54:20.118Z,1024.24
2023-04-19T04:54:50.987Z,1024.24
2023-04-19T04:55:20.530Z,1024.24
2023-04-19T04:55:52.293Z,1024.24
2023-04-19T04:56:23.194Z,1024.25
2023-04-19T04:56:54.069Z,1024.24
2023-04-19T04:57:23.693Z,1024.25
2023-04-19T04:57:55.529Z,1024.25
2023-04-19T04:58:26.405Z,1024.26
2023-04-19T04:58:57.270Z,1024.26
2023-04-19T04:59:28.110Z,1024.27
2023-04-19T04:59:58.981Z,1024.26
2023-04-19T05:01:00.786Z,1024.27
2023-04-19T05:01:31.714Z,1024.26
2023-04-19T05:02:02.564Z,1024.27
2023-04-19T05:02:33.474Z,1024.27
2023-04-19T05:03:04.399Z,1024.27
2023-04-19T05:03:34.922Z,1024.26
2023-04-19T05:04:05.850Z,1024.28
2023-04-19T05:04:36.709Z,1024.27
2023-04-19T05:05:06.258Z,1024.26
2023-04-19T05:05:38.121Z,1024.25
2023-04-19T05:06:08.970Z,1024.25
2023-04-19T05:06:39.812Z,1024.25
2023-04-19T05:07:09.767Z,1024.25
2023-04-19T05:07:41.643Z,1024.24
2023-04-19T05:08:11.624Z,1024.24
2023-04-19T05:08:43.487Z,1024.24
2023-04-19T05:09:14.349Z,1024.25
2023-04-19T05:09:45.234Z,1024.22
2023-04-19T05:10:16.079Z,1024.23
2023-04-19T05:10:46.964Z,1024.22
2023-04-19T05:11:17.844Z,1024.21
2023-04-19T05:11:48.590Z,1024.21
2023-04-19T05:12:19.449Z,1024.22
2023-04-19T05:12:50.212Z,1024.22
2023-04-19T05:13:51.933Z,1024.21
2023-04-19T05:14:22.764Z,1024.21
2023-04-19T05:14:53.662Z,1024.21
2023-04-19T05:15:24.589Z,1024.22
2023-04-19T05:15:54.206Z,1024.21
2023-04-19T05:16:26.089Z,1024.21
2023-04-19T05:16:56.824Z,1024.21
2023-04-19T05:17:27.703Z,1024.20
2023-04-19T05:17:58.678Z,1024.21
2023-04-19T05:18:29.576Z,1024.22
2023-04-19T05:19:00.356Z,1024.20
2023-04-19T05:19:31.229Z,1024.19
2023-04-19T05:20:01.959Z,1024.20
2023-04-19T05:20:32.819Z,1024.19
2023-04-19T05:21:03.564Z,1024.20
2023-04-19T05:21:34.429Z,1024.18
2023-04-19T05:22:05.299Z,1024.22
2023-04-19T05:22:36.140Z,1024.20
2023-04-19T05:23:05.712Z,1024.21
2023-04-19T05:23:37.873Z,1024.20
2023-04-19T05:24:07.333Z,1024.19
2023-04-19T05:24:37.920Z,1024.19
2023-04-19T05:25:09.860Z,1024.19
2023-04-19T05:25:40.735Z,1024.19
2023-04-19T05:26:42.466Z,1024.23
2023-04-19T05:27:12.253Z,1024.19
2023-04-19T05:27:44.148Z,1024.19
2023-04-19T05:28:14.993Z,1024.17
2023-04-19T05:28:45.887Z,1024.18
2023-04-19T05:29:16.717Z,1024.18
2023-04-19T05:29:47.482Z,1024.17
2023-04-19T05:30:17.012Z,1024.17
2023-04-19T05:30:48.878Z,1024.17
2023-04-19T05:31:19.792Z,1024.17
2023-04-19T05:31:50.779Z,1024.17
2023-04-19T05:32:21.266Z,1024.17
2023-04-19T05:32:52.197Z,1024.15
2023-04-19T05:33:23.065Z,1024.17
2023-04-19T05:33:53.824Z,1024.15
2023-04-19T05:34:24.706Z,1024.15
2023-04-19T05:34:55.463Z,1024.15
2023-04-19T05:35:25.048Z,1024.15
2023-04-19T05:35:56.801Z,1024.14
2023-04-19T05:36:26.769Z,1024.15
2023-04-19T05:36:58.655Z,1024.13
2023-04-19T05:37:29.530Z,1024.12
2023-04-19T05:38:00.410Z,1024.14
2023-04-19T05:38:30.361Z,1024.14
2023-04-19T05:39:32.210Z,1024.14
2023-04-19T05:40:04.072Z,1024.14
2023-04-19T05:40:34.963Z,1024.14
2023-04-19T05:41:05.867Z,1024.13
2023-04-19T05:41:36.626Z,1024.14
2023-04-19T05:42:07.491Z,1024.11
2023-04-19T05:42:38.261Z,1024.13
2023-04-19T05:43:08.137Z,1024.12
2023-04-19T05:43:39.988Z,1024.11
2023-04-19T05:44:10.869Z,1024.11
2023-04-19T05:44:40.713Z,1024.12
2023-04-19T05:45:12.570Z,1024.11
2023-04-19T05:45:43.432Z,1024.12
2023-04-19T05:46:14.314Z,1024.10
2023-04-19T05:46:45.234Z,1024.11
2023-04-19T05:47:16.120Z,1024.10
2023-04-19T05:47:46.986Z,1024.12
2023-04-19T05:48:17.858Z,1024.12
2023-04-19T05:48:48.727Z,1024.11
2023-04-19T05:49:19.617Z,1024.12
2023-04-19T05:49:50.462Z,1024.12
2023-04-19T05:50:21.391Z,1024.11
2023-04-19T05:50:52.408Z,1024.12
2023-04-19T05:51:22.741Z,1024.12
2023-04-19T05:51:53.586Z,1024.12
2023-04-19T05:52:24.521Z,1024.12
2023-04-19T05:52:55.368Z,1024.12
2023-04-19T05:53:26.228Z,1024.12
2023-04-19T05:53:57.270Z,1024.12
2023-04-19T05:54:27.368Z,1024.13
2023-04-19T05:54:58.288Z,1024.13
2023-04-19T05:55:29.153Z,1024.14
2023-04-19T05:56:00.064Z,1024.14
2023-04-19T05:56:30.941Z,1024.14
2023-04-19T05:57:01.790Z,1024.17
2023-04-19T05:57:32.552Z,1024.16
2023-04-19T05:58:03.417Z,1024.15
2023-04-19T05:58:32.970Z,1024.17
2023-04-19T05:59:04.737Z,1024.19
2023-04-19T05:59:35.607Z,1024.17
2023-04-19T06:00:05.579Z,1024.17
2023-04-19T06:00:37.418Z,1024.20
2023-04-19T06:01:06.973Z,1024.19
2023-04-19T06:01:38.939Z,1024.20
2023-04-19T06:02:08.695Z,1024.19
2023-04-19T06:02:40.456Z,1024.19
2023-04-19T06:03:11.079Z,1024.20
2023-04-19T06:03:41.084Z,1024.19
2023-04-19T06:04:12.386Z,1024.19
2023-04-19T06:04:43.292Z,1024.19
2023-04-19T06:05:13.638Z,1024.19
2023-04-19T06:05:44.229Z,1024.21
2023-04-19T06:06:14.884Z,1024.21
2023-04-19T06:06:45.394Z,1024.20
2023-04-19T06:07:30.197Z,1024.20
2023-04-19T06:07:54.396Z,1024.21
2023-04-19T06:08:17.789Z,1024.20
2023-04-19T06:08:48.563Z,1024.19
2023-04-19T06:09:19.386Z,1024.21
2023-04-19T06:09:50.076Z,1024.21
2023-04-19T06:10:19.635Z,1024.20
2023-04-19T06:10:55.733Z,1024.22
2023-04-19T06:11:26.937Z,1024.21
2023-04-19T06:11:53.021Z,1024.23
2023-04-19T06:12:23.894Z,1024.22
2023-04-19T06:12:53.428Z,1024.21
2023-04-19T06:13:25.313Z,1024.23
2023-04-19T06:13:56.179Z,1024.22
2023-04-19T06:14:26.929Z,1024.22
2023-04-19T06:14:57.761Z,1024.22
2023-04-19T06:15:28.641Z,1024.21
2023-04-19T06:15:59.542Z,1024.22
2023-04-19T06:16:30.485Z,1024.22
2023-04-19T06:17:01.202Z,1024.21
2023-04-19T06:17:32.117Z,1024.20
2023-04-19T06:18:02.990Z,1024.21
2023-04-19T06:18:32.546Z,1024.20
2023-04-19T06:19:04.425Z,1024.20
2023-04-19T06:19:35.330Z,1024.20
2023-04-19T06:20:06.199Z,1024.21
2023-04-19T06:20:37.051Z,1024.21
2023-04-19T06:21:07.845Z,1024.21
2023-04-19T06:21:38.847Z,1024.20